sensor_id;sensor_type;location;lat;lon;timestamp;P1;durP1;ratioP1;P2;durP2;ratioP2
40707;SDS011;26392;42.696;23.350;2023-03-25T00:01:56;31.48;;;13.30;;
40707;SDS011;26392;42.696;23.350;2023-03-25T00:04:22;28.48;;;13.50;;
40707;SDS011;26392;42.696;23.350;2023-03-25T00:06:54;25.73;;;12.90;;
40707;SDS011;26392;42.696;23.350;2023-03-25T00:09:20;33.58;;;14.10;;
40707;SDS011;26392;42.696;23.350;2023-03-25T00:11:48;27.48;;;13.25;;
40707;SDS011;26392;42.696;23.350;2023-03-25T00:14:14;28.02;;;13.07;;
40707;SDS011;26392;42.696;23.350;2023-03-25T00:16:41;28.83;;;13.88;;
40707;SDS011;26392;42.696;23.350;2023-03-25T00:19:07;26.27;;;13.18;;
40707;SDS011;26392;42.696;23.350;2023-03-25T00:21:33;25.63;;;13.73;;
40707;SDS011;26392;42.696;23.350;2023-03-25T00:23:59;31.02;;;13.77;;
40707;SDS011;26392;42.696;23.350;2023-03-25T00:26:26;24.27;;;13.32;;
40707;SDS011;26392;42.696;23.350;2023-03-25T00:28:54;30.25;;;14.40;;
40707;SDS011;26392;42.696;23.350;2023-03-25T00:31:20;27.40;;;14.35;;
40707;SDS011;26392;42.696;23.350;2023-03-25T00:33:45;26.75;;;13.35;;
40707;SDS011;26392;42.696;23.350;2023-03-25T00:36:11;32.40;;;14.63;;
40707;SDS011;26392;42.696;23.350;2023-03-25T00:38:38;36.65;;;14.82;;
40707;SDS011;26392;42.696;23.350;2023-03-25T00:43:41;28.40;;;14.65;;
40707;SDS011;26392;42.696;23.350;2023-03-25T00:46:07;27.98;;;13.88;;
40707;SDS011;26392;42.696;23.350;2023-03-25T00:48:33;32.33;;;14.88;;
40707;SDS011;26392;42.696;23.350;2023-03-25T00:50:58;27.77;;;13.60;;
40707;SDS011;26392;42.696;23.350;2023-03-25T00:53:31;30.40;;;15.05;;
40707;SDS011;26392;42.696;23.350;2023-03-25T00:55:57;33.97;;;15.35;;
40707;SDS011;26392;42.696;23.350;2023-03-25T00:58:22;30.77;;;14.32;;
40707;SDS011;26392;42.696;23.350;2023-03-25T01:00:48;31.70;;;15.38;;
40707;SDS011;26392;42.696;23.350;2023-03-25T01:03:13;36.60;;;15.48;;
40707;SDS011;26392;42.696;23.350;2023-03-25T01:05:39;33.50;;;13.93;;
40707;SDS011;26392;42.696;23.350;2023-03-25T01:08:07;30.17;;;14.80;;
40707;SDS011;26392;42.696;23.350;2023-03-25T01:10:35;30.83;;;14.60;;
40707;SDS011;26392;42.696;23.350;2023-03-25T01:13:01;31.17;;;14.18;;
40707;SDS011;26392;42.696;23.350;2023-03-25T01:15:26;32.65;;;14.40;;
40707;SDS011;26392;42.696;23.350;2023-03-25T01:17:52;28.70;;;13.60;;
40707;SDS011;26392;42.696;23.350;2023-03-25T01:20:17;30.50;;;14.43;;
40707;SDS011;26392;42.696;23.350;2023-03-25T01:22:43;27.77;;;14.77;;
40707;SDS011;26392;42.696;23.350;2023-03-25T01:25:08;29.40;;;15.85;;
40707;SDS011;26392;42.696;23.350;2023-03-25T01:27:34;29.92;;;15.00;;
40707;SDS011;26392;42.696;23.350;2023-03-25T01:30:00;30.38;;;15.23;;
40707;SDS011;26392;42.696;23.350;2023-03-25T01:32:27;30.65;;;15.40;;
40707;SDS011;26392;42.696;23.350;2023-03-25T01:34:52;33.72;;;15.60;;
40707;SDS011;26392;42.696;23.350;2023-03-25T01:37:18;32.33;;;15.23;;
40707;SDS011;26392;42.696;23.350;2023-03-25T01:39:43;33.67;;;15.45;;
40707;SDS011;26392;42.696;23.350;2023-03-25T01:42:09;37.17;;;16.77;;
40707;SDS011;26392;42.696;23.350;2023-03-25T01:47:01;30.08;;;16.42;;
40707;SDS011;26392;42.696;23.350;2023-03-25T01:49:30;31.20;;;16.23;;
40707;SDS011;26392;42.696;23.350;2023-03-25T01:52:13;34.40;;;17.10;;
40707;SDS011;26392;42.696;23.350;2023-03-25T01:54:45;29.40;;;15.85;;
40707;SDS011;26392;42.696;23.350;2023-03-25T01:57:15;39.22;;;19.05;;
40707;SDS011;26392;42.696;23.350;2023-03-25T01:59:44;35.42;;;17.80;;
40707;SDS011;26392;42.696;23.350;2023-03-25T02:02:11;30.80;;;16.38;;
40707;SDS011;26392;42.696;23.350;2023-03-25T02:04:44;40.10;;;16.83;;
40707;SDS011;26392;42.696;23.350;2023-03-25T02:07:23;32.97;;;16.27;;
40707;SDS011;26392;42.696;23.350;2023-03-25T02:09:54;37.03;;;16.80;;
40707;SDS011;26392;42.696;23.350;2023-03-25T02:12:24;31.33;;;16.45;;
40707;SDS011;26392;42.696;23.350;2023-03-25T02:14:50;34.05;;;15.80;;
40707;SDS011;26392;42.696;23.350;2023-03-25T02:17:20;32.55;;;16.33;;
40707;SDS011;26392;42.696;23.350;2023-03-25T02:28:28;30.67;;;15.45;;
40707;SDS011;26392;42.696;23.350;2023-03-25T02:39:54;29.48;;;14.93;;
40707;SDS011;26392;42.696;23.350;2023-03-25T02:43:09;29.98;;;14.82;;
40707;SDS011;26392;42.696;23.350;2023-03-25T02:45:33;30.95;;;14.13;;
40707;SDS011;26392;42.696;23.350;2023-03-25T02:48:10;28.48;;;14.15;;
40707;SDS011;26392;42.696;23.350;2023-03-25T02:50:43;34.50;;;14.35;;
40707;SDS011;26392;42.696;23.350;2023-03-25T02:53:18;30.02;;;15.90;;
40707;SDS011;26392;42.696;23.350;2023-03-25T02:55:50;35.53;;;17.80;;
40707;SDS011;26392;42.696;23.350;2023-03-25T02:58:19;37.85;;;16.73;;
40707;SDS011;26392;42.696;23.350;2023-03-25T03:00:45;35.72;;;18.33;;
40707;SDS011;26392;42.696;23.350;2023-03-25T03:03:13;39.25;;;18.90;;
40707;SDS011;26392;42.696;23.350;2023-03-25T03:05:41;35.55;;;17.42;;
40707;SDS011;26392;42.696;23.350;2023-03-25T03:08:13;39.97;;;19.05;;
40707;SDS011;26392;42.696;23.350;2023-03-25T03:16:22;45.42;;;19.52;;
40707;SDS011;26392;42.696;23.350;2023-03-25T03:24:56;40.65;;;19.23;;
40707;SDS011;26392;42.696;23.350;2023-03-25T03:27:32;42.17;;;18.80;;
40707;SDS011;26392;42.696;23.350;2023-03-25T03:30:04;38.33;;;18.58;;
40707;SDS011;26392;42.696;23.350;2023-03-25T03:32:58;38.88;;;19.15;;
40707;SDS011;26392;42.696;23.350;2023-03-25T03:35:27;43.97;;;18.98;;
40707;SDS011;26392;42.696;23.350;2023-03-25T03:37:58;41.75;;;20.05;;
40707;SDS011;26392;42.696;23.350;2023-03-25T03:40:28;45.45;;;19.48;;
40707;SDS011;26392;42.696;23.350;2023-03-25T03:42:56;41.55;;;19.50;;
40707;SDS011;26392;42.696;23.350;2023-03-25T03:48:01;43.13;;;19.80;;
40707;SDS011;26392;42.696;23.350;2023-03-25T03:50:35;41.90;;;19.92;;
40707;SDS011;26392;42.696;23.350;2023-03-25T03:53:14;40.45;;;19.50;;
40707;SDS011;26392;42.696;23.350;2023-03-25T03:56:10;39.75;;;19.35;;
40707;SDS011;26392;42.696;23.350;2023-03-25T03:58:41;44.67;;;19.42;;
40707;SDS011;26392;42.696;23.350;2023-03-25T04:01:12;45.88;;;19.67;;
40707;SDS011;26392;42.696;23.350;2023-03-25T04:03:51;45.47;;;19.88;;
40707;SDS011;26392;42.696;23.350;2023-03-25T04:11:54;44.65;;;21.70;;
40707;SDS011;26392;42.696;23.350;2023-03-25T04:14:24;41.30;;;19.77;;
40707;SDS011;26392;42.696;23.350;2023-03-25T04:16:50;36.97;;;17.65;;
40707;SDS011;26392;42.696;23.350;2023-03-25T04:19:17;37.47;;;18.35;;
40707;SDS011;26392;42.696;23.350;2023-03-25T04:21:43;41.67;;;18.55;;
40707;SDS011;26392;42.696;23.350;2023-03-25T04:24:09;46.95;;;18.80;;
40707;SDS011;26392;42.696;23.350;2023-03-25T04:26:35;39.80;;;18.17;;
40707;SDS011;26392;42.696;23.350;2023-03-25T04:29:02;41.25;;;18.38;;
40707;SDS011;26392;42.696;23.350;2023-03-25T04:31:29;43.55;;;18.77;;
40707;SDS011;26392;42.696;23.350;2023-03-25T04:33:55;40.17;;;18.65;;
40707;SDS011;26392;42.696;23.350;2023-03-25T04:36:22;43.15;;;19.25;;
40707;SDS011;26392;42.696;23.350;2023-03-25T04:38:48;40.05;;;19.00;;
40707;SDS011;26392;42.696;23.350;2023-03-25T04:41:17;38.42;;;19.00;;
40707;SDS011;26392;42.696;23.350;2023-03-25T04:43:42;37.55;;;17.98;;
40707;SDS011;26392;42.696;23.350;2023-03-25T04:46:12;39.08;;;19.23;;
40707;SDS011;26392;42.696;23.350;2023-03-25T04:48:39;48.53;;;19.45;;
40707;SDS011;26392;42.696;23.350;2023-03-25T04:51:05;41.10;;;20.73;;
40707;SDS011;26392;42.696;23.350;2023-03-25T04:53:34;42.13;;;20.10;;
40707;SDS011;26392;42.696;23.350;2023-03-25T04:56:01;57.30;;;21.77;;
40707;SDS011;26392;42.696;23.350;2023-03-25T04:58:26;40.20;;;19.95;;
40707;SDS011;26392;42.696;23.350;2023-03-25T05:00:52;46.72;;;21.30;;
40707;SDS011;26392;42.696;23.350;2023-03-25T05:03:18;37.88;;;18.88;;
40707;SDS011;26392;42.696;23.350;2023-03-25T05:05:48;41.22;;;20.23;;
40707;SDS011;26392;42.696;23.350;2023-03-25T05:08:15;41.25;;;20.52;;
40707;SDS011;26392;42.696;23.350;2023-03-25T05:10:41;43.80;;;19.60;;
40707;SDS011;26392;42.696;23.350;2023-03-25T05:13:07;46.47;;;21.23;;
40707;SDS011;26392;42.696;23.350;2023-03-25T05:15:33;49.83;;;21.73;;
40707;SDS011;26392;42.696;23.350;2023-03-25T05:18:13;42.65;;;20.35;;
40707;SDS011;26392;42.696;23.350;2023-03-25T05:20:40;51.63;;;23.45;;
40707;SDS011;26392;42.696;23.350;2023-03-25T05:23:08;48.72;;;22.60;;
40707;SDS011;26392;42.696;23.350;2023-03-25T05:25:39;47.55;;;23.25;;
40707;SDS011;26392;42.696;23.350;2023-03-25T05:28:05;49.38;;;22.52;;
40707;SDS011;26392;42.696;23.350;2023-03-25T05:30:34;49.58;;;22.95;;
40707;SDS011;26392;42.696;23.350;2023-03-25T05:33:03;49.95;;;21.45;;
40707;SDS011;26392;42.696;23.350;2023-03-25T05:35:29;45.67;;;22.40;;
40707;SDS011;26392;42.696;23.350;2023-03-25T05:37:55;43.17;;;20.88;;
40707;SDS011;26392;42.696;23.350;2023-03-25T05:40:20;48.20;;;21.85;;
40707;SDS011;26392;42.696;23.350;2023-03-25T05:42:46;54.60;;;24.10;;
40707;SDS011;26392;42.696;23.350;2023-03-25T05:45:13;49.83;;;22.77;;
40707;SDS011;26392;42.696;23.350;2023-03-25T05:47:42;53.17;;;26.02;;
40707;SDS011;26392;42.696;23.350;2023-03-25T05:50:08;58.70;;;25.40;;
40707;SDS011;26392;42.696;23.350;2023-03-25T05:52:34;55.20;;;25.30;;
40707;SDS011;26392;42.696;23.350;2023-03-25T05:55:00;72.72;;;31.00;;
40707;SDS011;26392;42.696;23.350;2023-03-25T05:57:27;61.53;;;28.38;;
40707;SDS011;26392;42.696;23.350;2023-03-25T05:59:53;71.10;;;30.83;;
40707;SDS011;26392;42.696;23.350;2023-03-25T06:02:20;61.13;;;27.10;;
40707;SDS011;26392;42.696;23.350;2023-03-25T06:04:46;57.25;;;25.95;;
40707;SDS011;26392;42.696;23.350;2023-03-25T06:07:14;48.90;;;24.38;;
40707;SDS011;26392;42.696;23.350;2023-03-25T06:09:46;49.17;;;23.98;;
40707;SDS011;26392;42.696;23.350;2023-03-25T06:12:13;51.35;;;22.65;;
40707;SDS011;26392;42.696;23.350;2023-03-25T06:14:40;48.83;;;21.75;;
40707;SDS011;26392;42.696;23.350;2023-03-25T06:17:08;49.67;;;22.73;;
40707;SDS011;26392;42.696;23.350;2023-03-25T06:19:35;40.78;;;20.25;;
40707;SDS011;26392;42.696;23.350;2023-03-25T06:22:06;48.00;;;20.55;;
40707;SDS011;26392;42.696;23.350;2023-03-25T06:24:36;40.95;;;18.90;;
40707;SDS011;26392;42.696;23.350;2023-03-25T06:27:03;38.10;;;17.38;;
40707;SDS011;26392;42.696;23.350;2023-03-25T06:29:31;35.95;;;16.58;;
40707;SDS011;26392;42.696;23.350;2023-03-25T06:31:58;28.23;;;15.43;;
40707;SDS011;26392;42.696;23.350;2023-03-25T06:34:23;33.15;;;16.40;;
40707;SDS011;26392;42.696;23.350;2023-03-25T06:36:48;36.72;;;18.88;;
40707;SDS011;26392;42.696;23.350;2023-03-25T06:39:15;29.40;;;15.73;;
40707;SDS011;26392;42.696;23.350;2023-03-25T06:41:41;33.50;;;16.02;;
40707;SDS011;26392;42.696;23.350;2023-03-25T06:44:06;29.52;;;16.30;;
40707;SDS011;26392;42.696;23.350;2023-03-25T06:46:32;41.92;;;18.95;;
40707;SDS011;26392;42.696;23.350;2023-03-25T06:48:57;38.67;;;17.83;;
40707;SDS011;26392;42.696;23.350;2023-03-25T06:51:23;39.28;;;18.67;;
40707;SDS011;26392;42.696;23.350;2023-03-25T06:53:48;37.25;;;17.83;;
40707;SDS011;26392;42.696;23.350;2023-03-25T06:56:14;38.85;;;18.38;;
40707;SDS011;26392;42.696;23.350;2023-03-25T06:58:39;31.10;;;15.68;;
40707;SDS011;26392;42.696;23.350;2023-03-25T07:01:05;35.50;;;16.92;;
40707;SDS011;26392;42.696;23.350;2023-03-25T07:03:34;32.95;;;15.68;;
40707;SDS011;26392;42.696;23.350;2023-03-25T07:06:00;40.28;;;17.30;;
40707;SDS011;26392;42.696;23.350;2023-03-25T07:08:26;31.52;;;16.50;;
40707;SDS011;26392;42.696;23.350;2023-03-25T07:10:51;31.85;;;15.32;;
40707;SDS011;26392;42.696;23.350;2023-03-25T07:13:17;27.23;;;15.23;;
40707;SDS011;26392;42.696;23.350;2023-03-25T07:15:42;27.45;;;14.77;;
40707;SDS011;26392;42.696;23.350;2023-03-25T07:18:08;31.00;;;15.85;;
40707;SDS011;26392;42.696;23.350;2023-03-25T07:20:33;27.88;;;15.00;;
40707;SDS011;26392;42.696;23.350;2023-03-25T07:22:58;27.08;;;15.18;;
40707;SDS011;26392;42.696;23.350;2023-03-25T07:25:24;24.55;;;13.75;;
40707;SDS011;26392;42.696;23.350;2023-03-25T07:27:50;28.30;;;15.05;;
40707;SDS011;26392;42.696;23.350;2023-03-25T07:30:15;35.55;;;15.13;;
40707;SDS011;26392;42.696;23.350;2023-03-25T07:32:42;26.67;;;15.13;;
40707;SDS011;26392;42.696;23.350;2023-03-25T07:35:09;30.67;;;14.68;;
40707;SDS011;26392;42.696;23.350;2023-03-25T07:37:35;30.15;;;14.43;;
40707;SDS011;26392;42.696;23.350;2023-03-25T07:40:00;27.17;;;14.90;;
40707;SDS011;26392;42.696;23.350;2023-03-25T07:42:26;24.15;;;15.15;;
40707;SDS011;26392;42.696;23.350;2023-03-25T07:44:51;29.45;;;13.63;;
40707;SDS011;26392;42.696;23.350;2023-03-25T07:47:16;24.73;;;13.95;;
40707;SDS011;26392;42.696;23.350;2023-03-25T07:49:42;27.05;;;14.20;;
40707;SDS011;26392;42.696;23.350;2023-03-25T07:52:08;26.00;;;13.77;;
40707;SDS011;26392;42.696;23.350;2023-03-25T07:54:34;25.10;;;14.02;;
40707;SDS011;26392;42.696;23.350;2023-03-25T07:57:00;33.38;;;15.65;;
40707;SDS011;26392;42.696;23.350;2023-03-25T07:59:26;32.25;;;14.13;;
40707;SDS011;26392;42.696;23.350;2023-03-25T08:01:51;29.38;;;13.80;;
40707;SDS011;26392;42.696;23.350;2023-03-25T08:04:17;25.90;;;14.20;;
40707;SDS011;26392;42.696;23.350;2023-03-25T08:06:42;26.85;;;14.25;;
40707;SDS011;26392;42.696;23.350;2023-03-25T08:09:07;27.88;;;15.32;;
40707;SDS011;26392;42.696;23.350;2023-03-25T08:11:33;26.95;;;14.55;;
40707;SDS011;26392;42.696;23.350;2023-03-25T08:13:58;21.80;;;13.98;;
40707;SDS011;26392;42.696;23.350;2023-03-25T08:16:24;31.85;;;15.00;;
40707;SDS011;26392;42.696;23.350;2023-03-25T08:18:49;36.28;;;15.15;;
40707;SDS011;26392;42.696;23.350;2023-03-25T08:21:17;25.80;;;14.88;;
40707;SDS011;26392;42.696;23.350;2023-03-25T08:23:52;24.98;;;13.77;;
40707;SDS011;26392;42.696;23.350;2023-03-25T08:26:25;25.15;;;14.52;;
40707;SDS011;26392;42.696;23.350;2023-03-25T08:28:53;22.98;;;13.88;;
40707;SDS011;26392;42.696;23.350;2023-03-25T08:31:21;23.65;;;12.20;;
40707;SDS011;26392;42.696;23.350;2023-03-25T08:33:50;24.05;;;13.70;;
40707;SDS011;26392;42.696;23.350;2023-03-25T08:36:16;29.08;;;13.85;;
40707;SDS011;26392;42.696;23.350;2023-03-25T08:38:47;24.75;;;12.95;;
40707;SDS011;26392;42.696;23.350;2023-03-25T08:41:13;23.27;;;13.32;;
40707;SDS011;26392;42.696;23.350;2023-03-25T08:43:39;25.33;;;13.27;;
40707;SDS011;26392;42.696;23.350;2023-03-25T08:46:05;23.88;;;12.52;;
40707;SDS011;26392;42.696;23.350;2023-03-25T08:48:30;19.10;;;12.13;;
40707;SDS011;26392;42.696;23.350;2023-03-25T08:50:56;30.42;;;13.20;;
40707;SDS011;26392;42.696;23.350;2023-03-25T08:53:22;26.45;;;13.18;;
40707;SDS011;26392;42.696;23.350;2023-03-25T08:55:54;20.63;;;11.45;;
40707;SDS011;26392;42.696;23.350;2023-03-25T08:58:21;22.90;;;11.35;;
40707;SDS011;26392;42.696;23.350;2023-03-25T09:00:48;25.42;;;12.45;;
40707;SDS011;26392;42.696;23.350;2023-03-25T09:03:18;23.17;;;12.80;;
40707;SDS011;26392;42.696;23.350;2023-03-25T09:05:48;22.75;;;11.30;;
40707;SDS011;26392;42.696;23.350;2023-03-25T09:08:13;23.83;;;11.27;;
40707;SDS011;26392;42.696;23.350;2023-03-25T09:10:39;23.83;;;10.65;;
40707;SDS011;26392;42.696;23.350;2023-03-25T09:13:05;21.45;;;12.20;;
40707;SDS011;26392;42.696;23.350;2023-03-25T09:15:31;22.38;;;10.88;;
40707;SDS011;26392;42.696;23.350;2023-03-25T09:17:57;21.55;;;10.38;;
40707;SDS011;26392;42.696;23.350;2023-03-25T09:20:22;24.48;;;11.30;;
40707;SDS011;26392;42.696;23.350;2023-03-25T09:22:48;16.65;;;10.20;;
40707;SDS011;26392;42.696;23.350;2023-03-25T09:25:13;21.73;;;10.50;;
40707;SDS011;26392;42.696;23.350;2023-03-25T09:27:39;17.48;;;10.18;;
40707;SDS011;26392;42.696;23.350;2023-03-25T09:30:05;27.92;;;10.35;;
40707;SDS011;26392;42.696;23.350;2023-03-25T09:32:32;17.15;;;9.30;;
40707;SDS011;26392;42.696;23.350;2023-03-25T09:34:57;23.63;;;9.77;;
40707;SDS011;26392;42.696;23.350;2023-03-25T09:37:23;15.40;;;8.65;;
40707;SDS011;26392;42.696;23.350;2023-03-25T09:39:49;19.73;;;9.15;;
40707;SDS011;26392;42.696;23.350;2023-03-25T09:45:35;18.33;;;8.13;;
40707;SDS011;26392;42.696;23.350;2023-03-25T09:51:10;14.57;;;7.95;;
40707;SDS011;26392;42.696;23.350;2023-03-25T09:53:49;14.88;;;8.35;;
40707;SDS011;26392;42.696;23.350;2023-03-25T09:56:18;14.35;;;8.75;;
40707;SDS011;26392;42.696;23.350;2023-03-25T09:58:47;11.52;;;6.22;;
40707;SDS011;26392;42.696;23.350;2023-03-25T10:03:54;12.52;;;6.50;;
40707;SDS011;26392;42.696;23.350;2023-03-25T10:06:29;12.45;;;5.65;;
40707;SDS011;26392;42.696;23.350;2023-03-25T10:11:54;8.50;;;4.13;;
40707;SDS011;26392;42.696;23.350;2023-03-25T10:14:44;10.35;;;3.92;;
40707;SDS011;26392;42.696;23.350;2023-03-25T10:17:28;9.27;;;4.60;;
40707;SDS011;26392;42.696;23.350;2023-03-25T10:25:17;8.35;;;3.40;;
40707;SDS011;26392;42.696;23.350;2023-03-25T10:27:50;5.45;;;3.58;;
40707;SDS011;26392;42.696;23.350;2023-03-25T10:30:18;5.88;;;3.65;;
40707;SDS011;26392;42.696;23.350;2023-03-25T10:35:17;5.85;;;3.30;;
40707;SDS011;26392;42.696;23.350;2023-03-25T10:37:47;5.22;;;3.38;;
40707;SDS011;26392;42.696;23.350;2023-03-25T10:43:11;7.13;;;3.17;;
40707;SDS011;26392;42.696;23.350;2023-03-25T10:45:47;4.53;;;3.60;;
40707;SDS011;26392;42.696;23.350;2023-03-25T10:48:24;8.25;;;3.55;;
40707;SDS011;26392;42.696;23.350;2023-03-25T10:50:55;6.18;;;4.03;;
40707;SDS011;26392;42.696;23.350;2023-03-25T10:53:45;5.80;;;3.28;;
40707;SDS011;26392;42.696;23.350;2023-03-25T10:56:13;6.32;;;3.50;;
40707;SDS011;26392;42.696;23.350;2023-03-25T10:58:39;5.57;;;3.10;;
40707;SDS011;26392;42.696;23.350;2023-03-25T11:01:16;4.57;;;3.15;;
40707;SDS011;26392;42.696;23.350;2023-03-25T11:03:44;7.72;;;3.78;;
40707;SDS011;26392;42.696;23.350;2023-03-25T11:06:28;5.82;;;3.33;;
40707;SDS011;26392;42.696;23.350;2023-03-25T11:11:54;7.90;;;4.00;;
40707;SDS011;26392;42.696;23.350;2023-03-25T11:14:23;7.38;;;4.10;;
40707;SDS011;26392;42.696;23.350;2023-03-25T11:17:10;8.30;;;3.38;;
40707;SDS011;26392;42.696;23.350;2023-03-25T11:22:16;7.45;;;4.15;;
40707;SDS011;26392;42.696;23.350;2023-03-25T11:24:46;6.18;;;4.00;;
40707;SDS011;26392;42.696;23.350;2023-03-25T11:27:17;8.45;;;4.75;;
40707;SDS011;26392;42.696;23.350;2023-03-25T11:29:52;7.20;;;3.50;;
40707;SDS011;26392;42.696;23.350;2023-03-25T11:32:31;5.95;;;3.50;;
40707;SDS011;26392;42.696;23.350;2023-03-25T11:34:59;4.15;;;3.22;;
40707;SDS011;26392;42.696;23.350;2023-03-25T11:37:27;8.68;;;3.35;;
40707;SDS011;26392;42.696;23.350;2023-03-25T11:40:00;4.15;;;2.95;;
40707;SDS011;26392;42.696;23.350;2023-03-25T11:42:31;4.15;;;3.33;;
40707;SDS011;26392;42.696;23.350;2023-03-25T11:45:00;5.70;;;3.35;;
40707;SDS011;26392;42.696;23.350;2023-03-25T11:47:34;4.80;;;2.95;;
40707;SDS011;26392;42.696;23.350;2023-03-25T11:50:01;5.47;;;3.38;;
40707;SDS011;26392;42.696;23.350;2023-03-25T11:52:41;6.53;;;3.53;;
40707;SDS011;26392;42.696;23.350;2023-03-25T11:55:21;7.22;;;3.35;;
40707;SDS011;26392;42.696;23.350;2023-03-25T11:57:49;4.07;;;2.90;;
40707;SDS011;26392;42.696;23.350;2023-03-25T12:02:58;4.97;;;3.10;;
40707;SDS011;26392;42.696;23.350;2023-03-25T12:05:24;4.78;;;2.83;;
40707;SDS011;26392;42.696;23.350;2023-03-25T12:07:50;8.02;;;3.30;;
40707;SDS011;26392;42.696;23.350;2023-03-25T12:10:33;10.63;;;2.80;;
40707;SDS011;26392;42.696;23.350;2023-03-25T12:15:48;4.85;;;3.03;;
40707;SDS011;26392;42.696;23.350;2023-03-25T12:29:39;4.15;;;2.90;;
40707;SDS011;26392;42.696;23.350;2023-03-25T12:43:05;4.20;;;2.90;;
40707;SDS011;26392;42.696;23.350;2023-03-25T12:48:30;4.38;;;2.72;;
40707;SDS011;26392;42.696;23.350;2023-03-25T12:53:56;6.95;;;3.35;;
40707;SDS011;26392;42.696;23.350;2023-03-25T12:56:51;7.18;;;3.50;;
40707;SDS011;26392;42.696;23.350;2023-03-25T13:02:25;6.03;;;3.20;;
40707;SDS011;26392;42.696;23.350;2023-03-25T13:07:57;6.88;;;2.90;;
40707;SDS011;26392;42.696;23.350;2023-03-25T13:10:35;7.75;;;3.47;;
40707;SDS011;26392;42.696;23.350;2023-03-25T13:13:05;4.38;;;3.35;;
40707;SDS011;26392;42.696;23.350;2023-03-25T13:15:39;5.47;;;2.90;;
40707;SDS011;26392;42.696;23.350;2023-03-25T13:18:19;6.43;;;3.83;;
40707;SDS011;26392;42.696;23.350;2023-03-25T13:23:32;10.27;;;3.40;;
40707;SDS011;26392;42.696;23.350;2023-03-25T13:28:57;4.70;;;3.10;;
40707;SDS011;26392;42.696;23.350;2023-03-25T13:31:26;8.65;;;3.70;;
40707;SDS011;26392;42.696;23.350;2023-03-25T13:36:35;8.80;;;3.70;;
40707;SDS011;26392;42.696;23.350;2023-03-25T13:39:11;15.85;;;3.80;;
40707;SDS011;26392;42.696;23.350;2023-03-25T13:41:43;6.55;;;3.75;;
40707;SDS011;26392;42.696;23.350;2023-03-25T13:47:01;4.03;;;2.85;;
40707;SDS011;26392;42.696;23.350;2023-03-25T13:49:41;9.40;;;3.10;;
40707;SDS011;26392;42.696;23.350;2023-03-25T13:52:13;11.80;;;3.33;;
40707;SDS011;26392;42.696;23.350;2023-03-25T13:54:53;5.63;;;3.33;;
40707;SDS011;26392;42.696;23.350;2023-03-25T13:57:53;6.50;;;3.13;;
40707;SDS011;26392;42.696;23.350;2023-03-25T14:00:49;5.60;;;3.00;;
40707;SDS011;26392;42.696;23.350;2023-03-25T14:11:26;4.82;;;3.45;;
40707;SDS011;26392;42.696;23.350;2023-03-25T14:13:59;4.30;;;2.88;;
40707;SDS011;26392;42.696;23.350;2023-03-25T14:16:32;5.80;;;3.40;;
40707;SDS011;26392;42.696;23.350;2023-03-25T14:19:03;5.60;;;3.60;;
40707;SDS011;26392;42.696;23.350;2023-03-25T14:26:28;5.30;;;3.90;;
40707;SDS011;26392;42.696;23.350;2023-03-25T14:28:57;6.90;;;3.25;;
40707;SDS011;26392;42.696;23.350;2023-03-25T14:31:30;8.13;;;3.45;;
40707;SDS011;26392;42.696;23.350;2023-03-25T14:34:41;7.10;;;3.83;;
40707;SDS011;26392;42.696;23.350;2023-03-25T14:39:37;6.97;;;4.25;;
40707;SDS011;26392;42.696;23.350;2023-03-25T14:44:36;7.70;;;4.68;;
40707;SDS011;26392;42.696;23.350;2023-03-25T14:50:07;7.00;;;4.53;;
40707;SDS011;26392;42.696;23.350;2023-03-25T14:52:53;9.95;;;4.70;;
40707;SDS011;26392;42.696;23.350;2023-03-25T14:57:59;7.85;;;4.00;;
40707;SDS011;26392;42.696;23.350;2023-03-25T15:00:29;7.20;;;4.10;;
40707;SDS011;26392;42.696;23.350;2023-03-25T15:03:16;4.53;;;3.53;;
40707;SDS011;26392;42.696;23.350;2023-03-25T15:05:44;6.57;;;4.47;;
40707;SDS011;26392;42.696;23.350;2023-03-25T15:08:23;9.07;;;4.72;;
40707;SDS011;26392;42.696;23.350;2023-03-25T15:11:03;7.20;;;4.22;;
40707;SDS011;26392;42.696;23.350;2023-03-25T15:13:38;8.73;;;4.38;;
40707;SDS011;26392;42.696;23.350;2023-03-25T15:16:17;6.03;;;4.03;;
40707;SDS011;26392;42.696;23.350;2023-03-25T15:18:56;7.35;;;4.68;;
40707;SDS011;26392;42.696;23.350;2023-03-25T15:21:23;7.93;;;4.00;;
40707;SDS011;26392;42.696;23.350;2023-03-25T15:26:31;7.00;;;4.68;;
40707;SDS011;26392;42.696;23.350;2023-03-25T15:29:13;8.23;;;5.10;;
40707;SDS011;26392;42.696;23.350;2023-03-25T15:40:29;8.00;;;4.90;;
40707;SDS011;26392;42.696;23.350;2023-03-25T15:46:27;7.07;;;4.47;;
40707;SDS011;26392;42.696;23.350;2023-03-25T15:48:54;7.63;;;4.78;;
40707;SDS011;26392;42.696;23.350;2023-03-25T15:51:59;8.20;;;5.10;;
40707;SDS011;26392;42.696;23.350;2023-03-25T15:57:03;12.05;;;5.47;;
40707;SDS011;26392;42.696;23.350;2023-03-25T15:59:45;9.98;;;5.32;;
40707;SDS011;26392;42.696;23.350;2023-03-25T16:02:29;9.43;;;5.30;;
40707;SDS011;26392;42.696;23.350;2023-03-25T16:04:59;11.52;;;5.53;;
40707;SDS011;26392;42.696;23.350;2023-03-25T16:07:27;9.93;;;5.07;;
40707;SDS011;26392;42.696;23.350;2023-03-25T16:09:55;10.60;;;5.05;;
40707;SDS011;26392;42.696;23.350;2023-03-25T16:12:28;7.80;;;5.20;;
40707;SDS011;26392;42.696;23.350;2023-03-25T16:14:53;11.50;;;5.78;;
40707;SDS011;26392;42.696;23.350;2023-03-25T16:17:20;11.38;;;5.82;;
40707;SDS011;26392;42.696;23.350;2023-03-25T16:19:56;12.73;;;5.32;;
40707;SDS011;26392;42.696;23.350;2023-03-25T16:22:27;11.05;;;5.30;;
40707;SDS011;26392;42.696;23.350;2023-03-25T16:27:30;12.57;;;5.63;;
40707;SDS011;26392;42.696;23.350;2023-03-25T16:29:59;6.88;;;4.97;;
40707;SDS011;26392;42.696;23.350;2023-03-25T16:32:30;9.65;;;5.22;;
40707;SDS011;26392;42.696;23.350;2023-03-25T16:34:56;15.65;;;5.45;;
40707;SDS011;26392;42.696;23.350;2023-03-25T16:37:22;15.25;;;6.03;;
40707;SDS011;26392;42.696;23.350;2023-03-25T16:39:52;13.13;;;6.60;;
40707;SDS011;26392;42.696;23.350;2023-03-25T16:42:29;12.13;;;6.57;;
40707;SDS011;26392;42.696;23.350;2023-03-25T16:44:58;17.40;;;6.80;;
40707;SDS011;26392;42.696;23.350;2023-03-25T16:47:25;16.73;;;6.72;;
40707;SDS011;26392;42.696;23.350;2023-03-25T16:49:51;11.38;;;6.55;;
40707;SDS011;26392;42.696;23.350;2023-03-25T16:52:23;15.88;;;6.55;;
40707;SDS011;26392;42.696;23.350;2023-03-25T16:57:18;12.43;;;7.20;;
40707;SDS011;26392;42.696;23.350;2023-03-25T16:59:46;17.63;;;6.63;;
40707;SDS011;26392;42.696;23.350;2023-03-25T17:02:28;17.27;;;6.05;;
40707;SDS011;26392;42.696;23.350;2023-03-25T17:05:25;15.00;;;7.53;;
40707;SDS011;26392;42.696;23.350;2023-03-25T17:07:56;11.10;;;5.82;;
40707;SDS011;26392;42.696;23.350;2023-03-25T17:10:28;13.50;;;7.15;;
40707;SDS011;26392;42.696;23.350;2023-03-25T17:12:57;13.85;;;5.95;;
40707;SDS011;26392;42.696;23.350;2023-03-25T17:18:01;13.38;;;6.88;;
40707;SDS011;26392;42.696;23.350;2023-03-25T17:20:41;12.65;;;6.97;;
40707;SDS011;26392;42.696;23.350;2023-03-25T17:25:56;53.05;;;21.73;;